createdAt,value
2018-11-14T00:04:19.994Z,18.80
2018-11-14T00:31:18.395Z,18.80
2018-11-14T00:44:25.568Z,18.80
2018-11-14T01:10:35.245Z,18.70
2018-11-14T01:23:42.401Z,18.70
2018-11-14T01:36:49.512Z,18.70
2018-11-14T01:49:56.651Z,18.70
2018-11-14T02:03:03.794Z,18.70
2018-11-14T02:16:10.944Z,18.70
2018-11-14T02:29:18.053Z,18.70
2018-11-14T02:42:25.183Z,18.70
2018-11-14T02:55:32.336Z,18.60
2018-11-14T03:08:39.477Z,18.60
2018-11-14T03:21:46.758Z,18.60
2018-11-14T03:34:53.889Z,18.60
2018-11-14T03:48:01.036Z,18.60
2018-11-14T04:01:08.176Z,18.60
2018-11-14T04:14:15.278Z,18.50
2018-11-14T04:27:22.418Z,18.50
2018-11-14T04:40:29.585Z,18.50
2018-11-14T04:53:36.742Z,18.50
2018-11-14T05:06:43.848Z,18.50
2018-11-14T05:19:50.970Z,18.50
2018-11-14T05:32:58.111Z,18.50
2018-11-14T05:46:05.252Z,18.50
2018-11-14T06:12:14.991Z,18.50
2018-11-14T06:38:24.772Z,18.50
2018-11-14T06:51:31.898Z,19.10
2018-11-14T07:04:39.443Z,20.10
2018-11-14T07:17:46.624Z,20.20
2018-11-14T07:30:53.714Z,20.20
2018-11-14T07:44:00.862Z,20.00
2018-11-14T07:57:08.019Z,19.80
2018-11-14T08:10:15.157Z,19.70
2018-11-14T08:23:22.318Z,19.50
2018-11-14T08:36:29.423Z,19.40
2018-11-14T08:49:36.537Z,19.30
2018-11-14T09:15:46.077Z,19.10
2018-11-14T09:28:53.275Z,19.10
2018-11-14T09:42:00.382Z,19.00
2018-11-14T09:55:07.501Z,18.90
2018-11-14T10:08:14.652Z,18.90
2018-11-14T10:21:21.883Z,18.80
2018-11-14T10:34:28.983Z,18.80
2018-11-14T10:47:36.144Z,18.80
2018-11-14T11:00:43.325Z,18.80
2018-11-14T11:13:50.497Z,18.70
2018-11-14T11:26:57.590Z,18.70
2018-11-14T11:40:04.759Z,18.80
2018-11-14T11:53:11.921Z,18.70
2018-11-14T12:19:21.763Z,18.70
2018-11-14T12:32:28.930Z,18.70
2018-11-14T12:45:36.080Z,18.70
2018-11-14T12:58:43.322Z,18.70
2018-11-14T13:11:50.467Z,18.70
2018-11-14T13:24:57.639Z,18.70
2018-11-14T13:38:04.791Z,18.70
2018-11-14T13:51:12.200Z,18.70
2018-11-14T14:04:19.068Z,18.80
2018-11-14T14:17:26.256Z,18.90
2018-11-14T14:43:36.083Z,19.00
2018-11-14T14:56:43.239Z,19.40
2018-11-14T15:09:50.420Z,19.80
2018-11-14T15:22:57.606Z,19.80
2018-11-14T15:36:04.861Z,19.80
2018-11-14T15:49:11.938Z,19.80
2018-11-14T16:02:19.143Z,19.70
2018-11-14T16:15:26.332Z,19.50
2018-11-14T16:28:33.440Z,19.40
2018-11-14T16:41:40.637Z,19.30
2018-11-14T16:54:47.763Z,19.20
2018-11-14T17:07:54.901Z,19.20
2018-11-14T17:34:04.838Z,19.10
2018-11-14T17:47:12.341Z,19.00
2018-11-14T18:00:19.470Z,19.00
2018-11-14T18:13:26.645Z,19.00
2018-11-14T18:26:33.788Z,19.00
2018-11-14T18:39:41.078Z,18.90
2018-11-14T18:52:48.213Z,18.90
2018-11-14T19:05:55.445Z,18.90
2018-11-14T19:19:02.690Z,19.00
2018-11-14T19:32:09.856Z,19.00
2018-11-14T19:45:16.989Z,18.90
2018-11-14T19:58:24.171Z,18.70
2018-11-14T20:11:31.312Z,18.70
2018-11-14T20:24:38.501Z,18.70
2018-11-14T20:37:45.648Z,18.70
2018-11-14T20:50:52.783Z,18.70
2018-11-14T21:03:59.998Z,18.70
2018-11-14T21:17:07.118Z,18.60
2018-11-14T21:30:14.273Z,18.70
2018-11-14T21:43:21.421Z,18.70
2018-11-14T21:56:28.541Z,18.60
2018-11-14T22:22:38.550Z,18.60
2018-11-14T22:35:45.730Z,18.60
2018-11-14T22:48:52.832Z,18.60
2018-11-14T23:02:00.009Z,18.50
2018-11-14T23:15:07.163Z,18.50
2018-11-14T23:28:14.325Z,18.50
2018-11-14T23:41:21.482Z,18.50
2018-11-14T23:54:28.634Z,18.50
